Time;durP1;ratioP1;P1;durP2;ratioP2;P2;SDS_P1;SDS_P2;PMS_P1;PMS_P2;Temp;Humidity;BMP_temperature;BMP_pressure;BME280_temperature;BME280_humidity;BME280_pressure;Samples;Min_cycle;Max_cycle;Signal;HPM_P1;HPM_P2
2024/01/02 00:01:39;;;;;;;10.77;3.22;;;8.00;99.90;;;;;;6317636;22;20042;-91
2024/01/02 00:04:42;;;;;;;9.43;2.38;;;9.10;99.90;;;;;;6315716;22;20071;-92
2024/01/02 00:07:35;;;;;;;14.20;3.10;;;8.00;99.90;;;;;;6311037;22;20002;-93
2024/01/02 00:10:32;;;;;;;11.02;2.88;;;8.10;99.90;;;;;;6316011;22;20007;-92
2024/01/02 00:13:01;;;;;;;12.45;2.53;;;7.80;99.90;;;;;;6310866;22;20007;-92
2024/01/02 00:15:46;;;;;;;13.55;2.22;;;8.70;99.90;;;;;;6311482;22;20052;-94
2024/01/02 00:18:15;;;;;;;10.80;2.40;;;8.00;99.90;;;;;;6310165;22;20003;-93
2024/01/02 00:20:48;;;;;;;8.38;2.05;;;8.50;99.90;;;;;;6309354;22;20424;-91
2024/01/02 00:23:21;;;;;;;15.32;2.55;;;8.40;99.90;;;;;;6310328;22;20026;-90
2024/01/02 00:25:53;;;;;;;13.38;2.70;;;8.10;99.90;;;;;;6310157;22;19999;-90
2024/01/02 00:28:19;;;;;;;8.77;2.70;;;8.10;99.90;;;;;;6310553;22;20003;-92
2024/01/02 00:30:47;;;;;;;12.93;2.78;;;8.10;99.90;;;;;;6310614;22;20472;-92
2024/01/02 00:33:14;;;;;;;9.40;2.50;;;8.10;99.90;;;;;;6310320;22;20068;-90
2024/01/02 00:36:03;;;;;;;12.18;2.25;;;8.10;99.90;;;;;;6310651;22;20040;-90
2024/01/02 00:38:52;;;;;;;7.68;2.20;;;8.10;99.90;;;;;;6362465;22;20042;-94
2024/01/02 00:41:46;;;;;;;9.10;2.47;;;8.00;99.90;;;;;;6373363;22;20014;-94
2024/01/02 00:44:13;;;;;;;9.45;2.08;;;7.40;99.90;;;;;;6373523;22;20013;-92
2024/01/02 00:46:57;;;;;;;9.07;1.90;;;9.00;99.90;;;;;;6372175;22;20048;-92
2024/01/02 00:49:30;;;;;;;8.52;2.47;;;9.00;99.90;;;;;;6392285;22;20003;-91
2024/01/02 00:52:18;;;;;;;9.23;2.08;;;9.30;99.90;;;;;;6374581;22;20007;-92
2024/01/02 00:54:53;;;;;;;7.45;2.33;;;8.00;99.90;;;;;;6390920;22;19991;-92
2024/01/02 00:57:19;;;;;;;11.30;2.47;;;9.30;99.90;;;;;;6396882;22;19998;-93
2024/01/02 00:59:46;;;;;;;14.48;2.38;;;8.10;99.90;;;;;;6381690;22;20006;-93
2024/01/02 01:02:30;;;;;;;4.00;1.25;;;9.60;99.90;;;;;;6373013;22;20048;-93
2024/01/02 01:04:56;;;;;;;5.22;1.52;;;8.20;99.90;;;;;;6372211;22;20006;-93
2024/01/02 01:07:44;;;;;;;2.92;1.25;;;9.50;99.90;;;;;;6372549;22;20027;-94
2024/01/02 01:10:09;;;;;;;7.32;1.60;;;8.20;99.90;;;;;;6372662;22;20018;-93
2024/01/02 01:12:36;;;;;;;5.10;1.48;;;9.30;99.90;;;;;;6377736;22;20010;-91
2024/01/02 01:15:18;;;;;;;7.82;1.70;;;8.90;99.90;;;;;;6375143;22;20093;-93
2024/01/02 01:17:43;;;;;;;4.32;1.33;;;9.30;99.90;;;;;;6373237;22;20003;-92
2024/01/02 01:20:09;;;;;;;5.43;1.67;;;8.20;99.90;;;;;;6373167;22;20010;-93
2024/01/02 01:22:58;;;;;;;4.15;1.33;;;8.20;99.90;;;;;;6371474;22;20013;-93
2024/01/02 01:25:23;;;;;;;4.45;1.45;;;8.20;99.90;;;;;;6371782;22;19998;-94
2024/01/02 01:27:49;;;;;;;2.10;0.90;;;8.40;99.90;;;;;;6371926;22;20095;-93
2024/01/02 01:30:27;;;;;;;3.42;1.13;;;8.50;99.90;;;;;;6371930;22;20078;-93
2024/01/02 01:33:15;;;;;;;2.65;1.17;;;8.00;99.90;;;;;;6372099;22;20223;-92
2024/01/02 01:35:44;;;;;;;3.85;1.05;;;8.30;99.90;;;;;;6371981;22;19999;-92
2024/01/02 01:38:12;;;;;;;4.90;1.30;;;8.80;99.90;;;;;;6370727;22;20006;-94
2024/01/02 01:41:18;;;;;;;6.00;0.90;;;9.30;99.90;;;;;;6371372;22;20010;-92
2024/01/02 01:47:32;;;;;;;4.50;1.00;;;8.40;99.90;;;;;;6340414;22;20057;-93
2024/01/02 01:50:14;;;;;;;4.70;1.25;;;7.80;99.90;;;;;;6340598;22;20006;-95
2024/01/02 01:52:49;;;;;;;3.63;1.05;;;9.30;99.90;;;;;;6340804;22;20011;-93
2024/01/02 01:55:35;;;;;;;3.50;0.82;;;9.20;99.90;;;;;;6340826;22;20003;-93
2024/01/02 01:58:20;;;;;;;3.13;0.90;;;8.40;99.90;;;;;;6346427;22;20006;-95
2024/01/02 02:00:57;;;;;;;2.83;0.88;;;8.40;99.90;;;;;;6341243;22;20043;-93
2024/01/02 02:06:12;;;;;;;5.93;1.20;;;8.40;99.90;;;;;;6340247;22;20022;-95
2024/01/02 02:08:44;;;;;;;2.38;0.80;;;9.80;99.90;;;;;;6353540;22;19991;-92
2024/01/02 02:12:20;;;;;;;1.95;0.50;;;8.80;99.90;;;;;;6352334;22;20036;-93
2024/01/02 02:14:47;;;;;;;0.98;0.75;;;8.40;99.90;;;;;;6338068;22;20009;-91
2024/01/02 02:17:20;;;;;;;1.73;0.50;;;8.50;99.90;;;;;;6339854;22;20006;-91
2024/01/02 02:20:15;;;;;;;4.13;0.98;;;9.60;99.90;;;;;;6339682;22;20007;-91
2024/01/02 02:22:51;;;;;;;5.35;0.77;;;8.50;99.90;;;;;;6340154;22;20003;-91
2024/01/02 02:25:18;;;;;;;2.97;0.82;;;8.50;99.90;;;;;;6340597;22;20023;-92
2024/01/02 02:27:49;;;;;;;1.80;0.52;;;9.00;99.90;;;;;;6340282;22;20005;-91
2024/01/02 02:30:17;;;;;;;2.38;0.60;;;9.20;99.90;;;;;;6341143;22;20001;-92
2024/01/02 02:33:01;;;;;;;1.70;0.60;;;10.00;99.90;;;;;;6339768;22;20002;-93
2024/01/02 02:35:28;;;;;;;1.00;0.50;;;8.40;99.90;;;;;;6339285;22;20030;-91
2024/01/02 02:38:12;;;;;;;1.75;0.40;;;9.30;99.90;;;;;;6339145;22;20006;-91
2024/01/02 02:40:45;;;;;;;1.92;1.27;;;8.60;99.90;;;;;;6343733;22;20454;-92
2024/01/02 02:43:29;;;;;;;1.35;0.47;;;8.60;99.90;;;;;;6344088;22;20007;-91
2024/01/02 02:46:01;;;;;;;0.57;0.40;;;8.50;99.90;;;;;;6342987;22;19998;-92
2024/01/02 02:48:27;;;;;;;1.45;0.57;;;8.60;99.90;;;;;;6345315;22;20007;-92
2024/01/02 02:51:12;;;;;;;1.40;0.60;;;9.60;99.90;;;;;;6340655;22;20062;-91
2024/01/02 02:54:01;;;;;;;1.40;0.40;;;8.50;99.90;;;;;;6341099;22;19995;-92
2024/01/02 02:56:33;;;;;;;1.40;0.55;;;8.50;99.90;;;;;;6340621;22;20041;-92
2024/01/02 02:59:21;;;;;;;1.42;0.50;;;8.50;99.90;;;;;;6340495;22;20545;-92
2024/01/02 03:01:47;;;;;;;0.57;0.50;;;8.60;99.90;;;;;;6343528;22;20007;-93
2024/01/02 03:04:13;;;;;;;1.52;0.73;;;9.40;99.90;;;;;;6358736;22;20026;-92
2024/01/02 03:06:51;;;;;;;2.08;0.47;;;9.30;99.90;;;;;;6363975;22;19999;-92
2024/01/02 03:09:19;;;;;;;2.28;0.50;;;9.60;99.90;;;;;;6363254;22;20011;-92
2024/01/02 03:12:20;;;;;;;1.35;0.60;;;9.20;99.90;;;;;;6351093;22;20110;-92
2024/01/02 03:15:13;;;;;;;3.70;0.40;;;7.90;99.90;;;;;;6344862;22;20010;-91
2024/01/02 03:18:01;;;;;;;0.63;0.60;;;8.50;99.90;;;;;;6341694;22;19998;-92
2024/01/02 03:20:31;;;;;;;0.57;0.40;;;7.00;99.90;;;;;;6341659;22;20002;-92
2024/01/02 03:23:12;;;;;;;2.22;0.50;;;9.10;99.90;;;;;;6341897;22;20006;-92
2024/01/02 03:25:38;;;;;;;0.40;0.40;;;9.30;99.90;;;;;;6341661;22;20403;-93
2024/01/02 03:28:05;;;;;;;0.80;0.68;;;9.40;99.90;;;;;;6341256;22;20007;-92
2024/01/02 03:30:31;;;;;;;0.40;0.40;;;9.20;99.90;;;;;;6364659;22;19991;-91
2024/01/02 03:33:50;;;;;;;1.73;0.50;;;8.50;99.90;;;;;;6349325;22;20003;-92
2024/01/02 03:36:22;;;;;;;2.05;1.35;;;8.50;99.90;;;;;;6341452;22;19999;-91
2024/01/02 03:38:51;;;;;;;2.65;0.60;;;8.60;99.90;;;;;;6342257;22;20101;-91
2024/01/02 03:41:27;;;;;;;0.50;0.50;;;8.60;99.90;;;;;;6342141;22;20017;-93
2024/01/02 03:43:53;;;;;;;0.60;0.60;;;8.70;99.90;;;;;;6341636;22;20437;-93
2024/01/02 03:46:19;;;;;;;0.52;0.52;;;8.70;99.90;;;;;;6346392;22;20081;-91
2024/01/02 03:48:47;;;;;;;0.63;0.50;;;8.70;99.90;;;;;;6346468;22;20419;-91
2024/01/02 03:51:19;;;;;;;1.00;1.00;;;8.70;99.90;;;;;;6342255;22;20007;-93
2024/01/02 03:53:47;;;;;;;0.70;0.70;;;8.90;99.90;;;;;;6341889;22;19998;-92
2024/01/02 03:56:26;;;;;;;0.70;0.70;;;8.80;99.90;;;;;;6341896;22;20006;-91
2024/01/02 03:59:11;;;;;;;0.47;0.40;;;8.90;99.90;;;;;;6341405;22;20276;-92
2024/01/02 04:01:56;;;;;;;0.50;0.50;;;8.90;99.90;;;;;;6341108;22;20073;-90
2024/01/02 04:04:22;;;;;;;0.95;0.40;;;8.90;99.90;;;;;;6335883;22;20011;-91
2024/01/02 04:06:49;;;;;;;0.40;0.40;;;8.90;99.90;;;;;;6341221;22;20003;-92
2024/01/02 04:09:22;;;;;;;0.30;0.30;;;8.90;99.90;;;;;;6341457;22;19995;-92
2024/01/02 04:11:50;;;;;;;0.30;0.30;;;9.00;99.90;;;;;;6341005;22;20005;-91
2024/01/02 04:14:21;;;;;;;0.40;0.40;;;9.00;99.90;;;;;;6343741;22;20007;-91
2024/01/02 04:16:46;;;;;;;0.70;0.38;;;9.00;99.90;;;;;;6342327;22;19999;-91
2024/01/02 04:19:14;;;;;;;0.65;0.50;;;9.10;99.90;;;;;;6344053;22;20013;-92
2024/01/02 04:21:49;;;;;;;0.50;0.50;;;9.00;99.90;;;;;;6340217;22;20450;-92
2024/01/02 04:24:27;;;;;;;0.52;0.40;;;9.10;99.90;;;;;;6341225;22;19995;-92
2024/01/02 04:26:56;;;;;;;0.88;0.88;;;9.20;99.90;;;;;;6341989;22;20022;-92
2024/01/02 04:29:23;;;;;;;2.70;0.57;;;9.20;99.90;;;;;;6348736;22;20003;-92
2024/01/02 04:31:49;;;;;;;0.70;0.70;;;9.20;99.90;;;;;;6346848;22;20003;-90
2024/01/02 04:34:18;;;;;;;0.80;0.80;;;9.30;99.90;;;;;;6341397;22;20009;-91
2024/01/02 04:36:45;;;;;;;0.90;0.87;;;9.30;99.90;;;;;;6348428;22;20029;-92
2024/01/02 04:39:11;;;;;;;1.05;1.05;;;9.30;99.90;;;;;;6352710;22;20046;-91
2024/01/02 04:41:37;;;;;;;1.20;1.20;;;9.40;99.90;;;;;;6346152;22;20011;-92
2024/01/02 04:44:03;;;;;;;1.30;1.20;;;9.40;99.90;;;;;;6341263;22;20003;-91
2024/01/02 04:46:29;;;;;;;1.23;1.13;;;9.50;99.90;;;;;;6341694;22;20017;-92
2024/01/02 04:48:55;;;;;;;1.25;1.15;;;9.50;99.90;;;;;;6339799;22;19999;-94
2024/01/02 04:51:29;;;;;;;1.17;1.10;;;9.60;99.90;;;;;;6359325;22;20346;-91
2024/01/02 04:53:57;;;;;;;1.10;1.00;;;9.60;99.90;;;;;;6341998;22;20442;-91
2024/01/02 04:56:24;;;;;;;1.00;1.00;;;9.70;99.90;;;;;;6340732;22;20010;-91
2024/01/02 04:58:50;;;;;;;0.70;0.70;;;9.70;99.90;;;;;;6339446;22;19995;-86
2024/01/02 05:01:22;;;;;;;1.00;1.00;;;9.70;99.90;;;;;;6340722;22;20037;-91
2024/01/02 05:03:48;;;;;;;0.80;0.80;;;9.80;99.90;;;;;;6345158;22;19999;-90
2024/01/02 05:06:15;;;;;;;0.90;0.90;;;9.80;99.90;;;;;;6340944;22;20022;-93
2024/01/02 05:08:43;;;;;;;1.33;0.70;;;9.90;99.90;;;;;;6340407;22;20027;-92
2024/01/02 05:11:14;;;;;;;0.88;0.65;;;9.90;99.90;;;;;;6340380;22;20064;-92
2024/01/02 05:13:41;;;;;;;0.80;0.80;;;10.00;99.90;;;;;;6340090;22;20322;-91
2024/01/02 05:16:10;;;;;;;1.30;0.70;;;10.00;99.90;;;;;;6340554;22;20013;-93
2024/01/02 05:18:44;;;;;;;1.30;1.20;;;10.00;99.90;;;;;;6340433;22;19999;-91
2024/01/02 05:21:12;;;;;;;1.00;0.90;;;10.10;99.90;;;;;;6340489;22;20014;-91
2024/01/02 05:23:43;;;;;;;0.70;0.70;;;10.10;99.90;;;;;;6340052;22;20052;-90
2024/01/02 05:26:09;;;;;;;2.65;1.73;;;10.10;99.90;;;;;;6340937;22;20070;-92
2024/01/02 05:28:35;;;;;;;2.00;1.80;;;10.10;99.90;;;;;;6339851;22;20071;-93
2024/01/02 05:31:04;;;;;;;1.50;1.38;;;10.20;99.90;;;;;;6339887;22;20022;-92
2024/01/02 05:33:47;;;;;;;2.28;1.88;;;10.70;99.90;;;;;;6340760;22;20354;-92
2024/01/02 05:36:49;;;;;;;4.65;1.67;;;11.00;99.90;;;;;;6339882;22;20513;-91
2024/01/02 05:42:03;;;;;;;3.80;2.70;;;10.30;99.90;;;;;;6341269;22;20030;-92
2024/01/02 05:44:47;;;;;;;9.13;3.15;;;10.30;99.90;;;;;;6343638;22;20380;-90
2024/01/02 05:47:14;;;;;;;11.80;3.38;;;11.40;99.90;;;;;;6342359;22;20073;-92
2024/01/02 05:50:03;;;;;;;10.82;2.90;;;10.40;99.90;;;;;;6342639;22;19998;-91
2024/01/02 05:52:46;;;;;;;15.35;3.00;;;10.40;99.90;;;;;;6340645;22;20007;-91
2024/01/02 05:55:13;;;;;;;13.80;3.17;;;11.30;99.90;;;;;;6340724;22;20003;-89
2024/01/02 05:57:39;;;;;;;21.70;5.43;;;10.60;99.90;;;;;;6339995;22;19999;-90
2024/01/02 06:00:15;;;;;;;17.55;3.03;;;11.40;99.90;;;;;;6340107;22;20013;-91
2024/01/02 06:02:43;;;;;;;23.15;3.67;;;10.70;99.90;;;;;;6340233;22;20003;-91
2024/01/02 06:05:09;;;;;;;19.35;3.75;;;11.70;99.90;;;;;;6340727;22;20006;-91
2024/01/02 06:07:36;;;;;;;22.95;4.40;;;12.00;99.90;;;;;;6342115;22;19999;-91
2024/01/02 06:10:14;;;;;;;34.38;4.95;;;11.80;99.90;;;;;;6344136;22;19999;-92
2024/01/02 06:12:45;;;;;;;32.33;5.20;;;10.90;99.90;;;;;;6359508;22;20030;-90
2024/01/02 06:15:13;;;;;;;23.60;4.50;;;11.00;99.90;;;;;;6366955;22;19999;-91
2024/01/02 06:17:39;;;;;;;30.55;5.80;;;11.00;99.90;;;;;;6365131;22;20006;-92
2024/01/02 06:20:24;;;;;;;34.78;5.55;;;11.40;99.90;;;;;;6367385;22;19987;-91
2024/01/02 06:26:12;;;;;;;34.83;5.32;;;11.20;99.90;;;;;;6343435;22;20139;-92
2024/01/02 06:28:38;;;;;;;43.38;7.05;;;11.30;99.90;;;;;;6341900;22;20003;-92
2024/01/02 06:31:05;;;;;;;40.50;6.65;;;11.20;99.90;;;;;;6341122;22;20423;-92
2024/01/02 06:33:44;;;;;;;27.65;4.88;;;11.20;99.90;;;;;;6340548;22;20052;-92
2024/01/02 06:36:14;;;;;;;41.35;5.80;;;11.20;99.90;;;;;;6340691;22;19995;-92
2024/01/02 06:38:43;;;;;;;49.90;7.22;;;11.20;99.90;;;;;;6340451;22;20007;-95
2024/01/02 06:41:24;;;;;;;39.65;6.55;;;11.30;99.90;;;;;;6339744;22;20366;-92
2024/01/02 06:43:51;;;;;;;35.30;5.88;;;11.20;99.90;;;;;;6342764;22;19995;-92
2024/01/02 06:46:17;;;;;;;50.20;7.22;;;11.30;99.90;;;;;;6343582;22;20011;-92
2024/01/02 06:48:43;;;;;;;37.88;5.15;;;11.30;99.90;;;;;;6348349;22;19998;-92
2024/01/02 06:51:09;;;;;;;33.70;6.03;;;11.30;99.90;;;;;;6343989;22;19998;-93
2024/01/02 06:53:36;;;;;;;27.90;5.72;;;11.30;99.90;;;;;;6347418;22;20078;-91
2024/01/02 06:56:07;;;;;;;30.00;6.07;;;11.30;99.90;;;;;;6341424;22;20132;-92
2024/01/02 06:58:34;;;;;;;39.10;6.15;;;11.30;99.90;;;;;;6346653;22;20006;-93
2024/01/02 07:01:01;;;;;;;37.20;5.88;;;11.30;99.90;;;;;;6344058;22;20021;-91
2024/01/02 07:03:32;;;;;;;33.28;6.78;;;11.30;99.90;;;;;;6341765;22;19995;-91
2024/01/02 07:06:08;;;;;;;33.10;6.07;;;11.50;99.90;;;;;;6339233;22;20081;-91
2024/01/02 07:08:49;;;;;;;33.65;6.30;;;11.30;99.90;;;;;;6339411;22;20003;-91
2024/01/02 07:11:15;;;;;;;34.67;6.50;;;11.30;99.90;;;;;;6339517;22;20002;-91
2024/01/02 07:13:41;;;;;;;36.83;6.25;;;11.40;99.90;;;;;;6339746;22;20006;-92
2024/01/02 07:16:07;;;;;;;28.10;5.82;;;11.30;99.90;;;;;;6341627;22;20098;-92
2024/01/02 07:18:35;;;;;;;39.17;6.57;;;11.30;99.90;;;;;;6340747;22;20423;-92
2024/01/02 07:21:02;;;;;;;36.88;5.72;;;11.90;99.90;;;;;;6339373;22;20010;-92
2024/01/02 07:23:28;;;;;;;27.80;5.35;;;11.20;99.90;;;;;;6340136;22;20003;-94
2024/01/02 07:25:54;;;;;;;43.35;5.72;;;11.20;99.90;;;;;;6338804;22;20026;-93
2024/01/02 07:28:23;;;;;;;36.30;5.78;;;11.20;99.90;;;;;;6338758;22;20419;-89
2024/01/02 07:30:50;;;;;;;31.73;5.15;;;11.30;99.90;;;;;;6340007;22;20423;-92
2024/01/02 07:33:21;;;;;;;38.83;6.05;;;11.20;99.90;;;;;;6357539;22;20023;-91
2024/01/02 07:35:47;;;;;;;28.92;4.95;;;11.10;99.90;;;;;;6343511;22;20001;-92
2024/01/02 07:38:13;;;;;;;34.13;5.90;;;11.20;99.90;;;;;;6349325;22;20166;-90
2024/01/02 07:44:03;;;;;;;34.33;6.45;;;11.20;99.90;;;;;;6334897;22;20014;-93
2024/01/02 07:46:30;;;;;;;41.67;7.50;;;11.10;99.90;;;;;;6345620;22;19999;-93
2024/01/02 07:48:59;;;;;;;57.65;8.85;;;12.00;99.90;;;;;;6346615;22;20030;-94
2024/01/02 07:51:27;;;;;;;33.67;7.32;;;11.10;99.90;;;;;;6345533;22;19998;-93
2024/01/02 07:54:00;;;;;;;41.50;6.72;;;11.10;99.90;;;;;;6338886;22;20322;-93
2024/01/02 07:56:28;;;;;;;43.45;6.70;;;11.20;99.90;;;;;;6343716;22;19999;-93
2024/01/02 07:58:55;;;;;;;33.03;6.43;;;11.20;99.90;;;;;;6338816;22;20163;-88
2024/01/02 08:01:22;;;;;;;41.45;6.82;;;11.20;99.90;;;;;;6340285;22;20014;-91
2024/01/02 08:03:55;;;;;;;43.10;7.40;;;11.20;99.90;;;;;;6339498;22;20005;-92
2024/01/02 08:06:23;;;;;;;36.15;7.80;;;11.20;99.90;;;;;;6339869;22;19999;-91
2024/01/02 08:08:51;;;;;;;28.42;5.93;;;11.20;99.90;;;;;;6339153;22;20303;-91
2024/01/02 08:11:18;;;;;;;31.10;6.53;;;11.20;99.90;;;;;;6339880;22;20081;-90
2024/01/02 08:13:51;;;;;;;32.58;6.57;;;11.20;99.90;;;;;;6339705;22;20052;-89
2024/01/02 08:16:20;;;;;;;29.35;5.65;;;11.30;99.90;;;;;;6341368;22;20002;-92
2024/01/02 08:18:47;;;;;;;29.90;5.65;;;11.30;99.90;;;;;;6337058;22;20010;-91
2024/01/02 08:21:13;;;;;;;35.28;7.15;;;11.20;99.90;;;;;;6338501;22;20055;-90
2024/01/02 08:23:39;;;;;;;36.30;5.55;;;11.30;99.90;;;;;;6346072;22;20003;-87
2024/01/02 08:26:15;;;;;;;31.58;6.90;;;11.20;99.90;;;;;;6338367;22;20007;-89
2024/01/02 08:28:42;;;;;;;32.75;5.60;;;11.30;99.90;;;;;;6337886;22;20002;-91
2024/01/02 08:31:08;;;;;;;39.40;6.05;;;11.80;99.90;;;;;;6338903;22;20086;-89
2024/01/02 08:33:36;;;;;;;42.28;7.07;;;11.30;99.90;;;;;;6348412;22;20450;-92
2024/01/02 08:36:02;;;;;;;28.73;6.07;;;11.80;99.90;;;;;;6342972;22;20495;-86
2024/01/02 08:38:30;;;;;;;37.03;6.28;;;11.30;99.90;;;;;;6338008;22;19998;-86
2024/01/02 08:40:55;;;;;;;37.17;6.43;;;12.10;99.90;;;;;;6336956;22;20036;-91
2024/01/02 08:43:22;;;;;;;34.33;6.30;;;11.50;99.90;;;;;;6339967;22;20018;-93
2024/01/02 08:45:50;;;;;;;29.23;6.10;;;12.70;99.90;;;;;;6338765;22;20010;-87
2024/01/02 08:48:15;;;;;;;33.83;6.22;;;12.40;99.90;;;;;;6337811;22;20003;-89
2024/01/02 08:53:14;;;;;;;43.17;7.35;;;11.40;99.90;;;;;;6347412;22;19924;-91
2024/01/02 08:56:05;;;;;;;44.40;6.95;;;11.40;99.90;;;;;;6357211;22;20025;-92
2024/01/02 08:58:31;;;;;;;44.92;7.90;;;12.10;99.90;;;;;;6340382;22;20003;-89
2024/01/02 09:00:57;;;;;;;48.90;7.70;;;11.40;99.90;;;;;;6338044;22;20022;-85
2024/01/02 09:03:35;;;;;;;35.85;6.40;;;11.40;99.90;;;;;;6339819;22;19995;-90
2024/01/02 09:06:00;;;;;;;56.65;9.02;;;12.40;99.90;;;;;;6339067;22;20007;-85
2024/01/02 09:08:32;;;;;;;38.72;6.97;;;11.40;99.90;;;;;;6334894;22;20039;-88
2024/01/02 09:10:58;;;;;;;39.85;6.80;;;11.50;99.90;;;;;;6338955;22;20010;-88
2024/01/02 09:13:31;;;;;;;54.88;7.65;;;11.50;99.90;;;;;;6333802;22;20006;-90
2024/01/02 09:15:58;;;;;;;46.70;8.95;;;11.50;99.90;;;;;;6336169;22;20082;-86
2024/01/02 09:18:26;;;;;;;39.28;7.28;;;11.50;99.90;;;;;;6337397;22;19999;-86
2024/01/02 09:20:52;;;;;;;40.08;6.65;;;11.50;99.90;;;;;;6353317;22;20019;-90
2024/01/02 09:23:18;;;;;;;38.95;6.78;;;11.50;99.90;;;;;;6358056;22;20016;-88
2024/01/02 09:25:45;;;;;;;61.90;8.77;;;11.80;99.90;;;;;;6355383;22;20003;-86
2024/01/02 09:28:14;;;;;;;44.25;7.88;;;11.60;99.90;;;;;;6347593;22;20502;-88
2024/01/02 09:30:43;;;;;;;39.17;7.55;;;11.60;99.90;;;;;;6345234;22;19998;-91
2024/01/02 09:33:17;;;;;;;40.42;7.32;;;11.60;99.90;;;;;;6342413;22;19995;-93
2024/01/02 09:35:44;;;;;;;42.85;7.85;;;11.50;99.90;;;;;;6342780;22;20003;-90
2024/01/02 09:38:12;;;;;;;40.67;6.65;;;11.50;99.90;;;;;;6342735;22;20070;-91
2024/01/02 09:46:40;;;;;;;34.55;5.72;;;11.40;99.90;;;;;;6329028;22;20010;-94
2024/01/02 09:49:25;;;;;;;27.13;4.97;;;11.40;99.90;;;;;;6299575;22;20093;-95
2024/01/02 09:52:41;;;;;;;34.25;6.78;;;12.30;99.90;;;;;;6322779;22;20009;-93
2024/01/02 09:55:55;;;;;;;;;;;;;;;;;;;;;
2024/01/02 09:58:58;;;;;;;24.50;5.55;;;11.50;99.90;;;;;;6188133;23;20144;-94
2024/01/02 10:01:43;;;;;;;38.85;6.40;;;10.80;99.90;;;;;;6323517;22;20003;-93
2024/01/02 10:07:56;;;;;;;17.63;4.43;;;11.50;99.90;;;;;;6317640;22;20062;-95
2024/01/02 10:10:22;;;;;;;25.20;5.82;;;11.50;99.90;;;;;;6310932;22;20003;-91
2024/01/02 10:13:14;;;;;;;21.77;5.18;;;13.00;99.90;;;;;;6317094;22;19999;-92
2024/01/02 10:16:00;;;;;;;17.88;4.35;;;11.60;99.90;;;;;;6323327;22;20082;-87
2024/01/02 10:18:34;;;;;;;16.10;4.22;;;11.60;99.90;;;;;;6310271;22;20006;-93
2024/01/02 10:21:41;;;;;;;9.43;3.55;;;11.60;99.90;;;;;;6311475;22;20022;-91
2024/01/02 10:24:29;;;;;;;17.30;4.28;;;11.60;99.90;;;;;;6309274;22;20006;-93
2024/01/02 10:27:16;;;;;;;15.27;3.53;;;11.60;99.90;;;;;;6308513;22;20003;-92
2024/01/02 10:29:57;;;;;;;9.65;3.60;;;11.70;99.90;;;;;;6306234;22;20090;-88
2024/01/02 10:36:03;;;;;;;4.25;2.33;;;11.70;99.90;;;;;;6250399;22;19913;-91
2024/01/02 10:38:55;;;;;;;7.45;2.90;;;11.70;99.90;;;;;;6312584;22;20014;-93
2024/01/02 10:41:52;;;;;;;7.43;3.30;;;11.70;99.90;;;;;;6315438;22;20022;-89
2024/01/02 10:44:46;;;;;;;6.60;3.08;;;11.70;99.90;;;;;;6313005;22;20403;-94
2024/01/02 10:50:34;;;;;;;6.20;4.53;;;11.30;99.90;;;;;;6332263;22;20105;-91
2024/01/02 10:53:12;;;;;;;8.68;4.93;;;12.80;99.90;;;;;;6341912;22;20014;-87
2024/01/02 10:56:18;;;;;;;5.13;4.50;;;11.80;99.90;;;;;;6335636;22;20394;-88
2024/01/02 10:59:03;;;;;;;5.45;4.55;;;11.80;99.90;;;;;;6252321;22;20015;-87
2024/01/02 11:01:40;;;;;;;6.60;6.10;;;12.40;99.90;;;;;;6335861;22;20475;-89
2024/01/02 11:04:38;;;;;;;7.95;6.95;;;12.80;99.90;;;;;;6336855;22;20102;-89
2024/01/02 11:07:28;;;;;;;7.45;6.72;;;11.80;99.90;;;;;;6338134;22;20003;-92
2024/01/02 11:10:08;;;;;;;7.45;6.75;;;12.80;99.90;;;;;;6338489;22;19999;-93
2024/01/02 11:12:58;;;;;;;7.47;6.78;;;12.40;99.90;;;;;;6310265;22;20006;-91
2024/01/02 11:15:27;;;;;;;6.78;6.18;;;11.90;99.90;;;;;;6337216;22;20030;-92
2024/01/02 11:17:59;;;;;;;4.80;4.50;;;11.80;99.90;;;;;;6337041;22;20348;-93
2024/01/02 11:20:35;;;;;;;4.78;4.38;;;11.80;99.90;;;;;;6337682;22;20035;-92
2024/01/02 11:23:06;;;;;;;3.83;3.53;;;11.80;99.90;;;;;;6336802;22;20010;-87
2024/01/02 11:25:37;;;;;;;3.33;3.00;;;11.90;99.90;;;;;;6336287;22;20431;-87
2024/01/02 11:28:07;;;;;;;3.15;2.95;;;12.60;99.90;;;;;;6336815;22;19995;-87
2024/01/02 11:30:36;;;;;;;3.03;2.83;;;11.80;99.90;;;;;;6336281;22;20063;-87
2024/01/02 11:33:30;;;;;;;3.35;2.83;;;11.60;99.90;;;;;;6337161;22;20019;-86
2024/01/02 11:36:15;;;;;;;2.30;2.20;;;11.80;99.90;;;;;;6353346;22;20086;-87
2024/01/02 11:39:15;;;;;;;2.17;2.03;;;12.40;99.90;;;;;;6345074;22;20003;-88
2024/01/02 11:42:07;;;;;;;4.78;3.47;;;11.80;99.90;;;;;;6338433;22;20017;-87
2024/01/02 11:44:57;;;;;;;4.40;4.10;;;11.80;99.90;;;;;;6337849;22;20009;-88
2024/01/02 11:47:48;;;;;;;5.90;5.30;;;11.80;99.90;;;;;;6338053;22;20083;-88
2024/01/02 11:50:16;;;;;;;6.40;5.90;;;11.80;99.90;;;;;;6339362;22;20026;-88
2024/01/02 11:53:02;;;;;;;5.72;5.13;;;12.10;99.90;;;;;;6339404;22;19998;-88
2024/01/02 11:56:01;;;;;;;5.13;4.78;;;12.20;99.90;;;;;;6338614;22;20018;-88
2024/01/02 11:58:46;;;;;;;4.53;4.13;;;11.70;99.90;;;;;;6339497;22;20491;-89
2024/01/02 12:02:09;;;;;;;3.58;3.38;;;11.80;99.90;;;;;;6338753;22;20015;-88
2024/01/02 12:05:07;;;;;;;3.08;2.88;;;11.40;99.90;;;;;;6243653;23;20111;-89
2024/01/02 12:07:38;;;;;;;2.65;2.45;;;11.70;99.90;;;;;;6243744;23;20004;-88
2024/01/02 12:10:05;;;;;;;2.67;2.47;;;12.70;99.90;;;;;;6244440;23;20004;-90
2024/01/02 12:12:43;;;;;;;2.80;2.60;;;11.70;99.90;;;;;;6243468;23;20004;-89
2024/01/02 12:15:27;;;;;;;2.35;2.13;;;11.70;99.90;;;;;;6295582;22;20010;-89
2024/01/02 12:18:06;;;;;;;2.05;1.95;;;11.80;99.90;;;;;;6338561;22;20002;-89
2024/01/02 12:20:57;;;;;;;1.63;1.52;;;11.60;99.90;;;;;;6338079;22;20093;-90
2024/01/02 12:23:40;;;;;;;1.80;1.70;;;11.60;99.90;;;;;;6339531;22;19995;-89
2024/01/02 12:26:09;;;;;;;1.50;1.40;;;11.60;99.90;;;;;;6338919;22;20026;-89
2024/01/02 12:28:39;;;;;;;1.65;0.90;;;11.70;99.90;;;;;;6343492;22;20003;-88
2024/01/02 12:31:58;;;;;;;0.80;0.80;;;12.60;99.90;;;;;;6350591;22;20477;-90
2024/01/02 12:34:39;;;;;;;0.73;0.73;;;11.60;99.90;;;;;;6295573;22;20058;-89
2024/01/02 12:37:22;;;;;;;0.93;0.90;;;11.60;99.90;;;;;;6339734;22;20334;-90
2024/01/02 12:40:10;;;;;;;0.88;0.60;;;11.60;99.90;;;;;;6339899;22;20068;-91
2024/01/02 12:42:41;;;;;;;0.60;0.60;;;11.60;99.90;;;;;;6339425;22;20317;-90
2024/01/02 12:45:18;;;;;;;0.57;0.57;;;12.60;99.90;;;;;;6340792;22;19999;-89
2024/01/02 12:47:47;;;;;;;4.38;2.80;;;11.20;99.90;;;;;;6339789;22;20296;-89
2024/01/02 12:50:18;;;;;;;1.42;0.82;;;12.40;99.90;;;;;;6339883;22;20024;-90
2024/01/02 12:53:14;;;;;;;1.35;1.00;;;11.60;99.90;;;;;;6338861;22;20458;-90
2024/01/02 12:56:02;;;;;;;0.80;0.70;;;11.60;99.90;;;;;;6343949;22;20002;-89
2024/01/02 12:58:32;;;;;;;0.70;0.70;;;12.40;99.90;;;;;;6348238;22;19999;-89
2024/01/02 13:01:00;;;;;;;;;;;11.50;99.90;;;;;;6313453;22;20010;-90
2024/01/02 13:03:33;;;;;;;0.60;0.55;;;11.50;99.90;;;;;;6340966;22;19940;-89
2024/01/02 13:06:00;;;;;;;2.35;0.98;;;12.50;99.90;;;;;;6339481;22;20007;-90
2024/01/02 13:08:28;;;;;;;1.20;0.65;;;11.50;99.90;;;;;;6339653;22;20085;-89
2024/01/02 13:10:55;;;;;;;0.70;0.57;;;11.50;99.90;;;;;;6339409;22;20003;-89
2024/01/02 13:13:24;;;;;;;1.88;0.40;;;11.50;99.90;;;;;;6338336;22;20462;-90
2024/01/02 13:15:57;;;;;;;1.02;0.65;;;12.50;99.90;;;;;;6339463;22;20048;-89
2024/01/02 13:18:24;;;;;;;0.60;0.40;;;11.50;99.90;;;;;;6340220;22;20029;-90
2024/01/02 13:20:58;;;;;;;0.70;0.50;;;11.50;99.90;;;;;;6338873;22;20006;-91
2024/01/02 13:23:24;;;;;;;0.68;0.60;;;12.40;99.90;;;;;;6339766;22;20354;-90
2024/01/02 13:25:55;;;;;;;1.33;0.68;;;11.50;99.90;;;;;;6338984;22;20009;-89
2024/01/02 13:28:21;;;;;;;;;;;11.40;99.90;;;;;;6339891;22;20003;-89
2024/01/02 13:30:49;;;;;;;0.90;0.90;;;11.50;99.90;;;;;;6338376;22;19910;-88
2024/01/02 13:33:15;;;;;;;0.65;0.65;;;11.50;99.90;;;;;;6338013;22;20055;-89
2024/01/02 13:36:05;;;;;;;0.82;0.80;;;11.50;99.90;;;;;;6339168;22;20027;-92
2024/01/02 13:38:50;;;;;;;1.30;0.90;;;11.50;99.90;;;;;;6337109;22;20007;-88
2024/01/02 13:41:44;;;;;;;1.60;0.80;;;11.40;99.90;;;;;;6336853;22;20015;-87
2024/01/02 13:44:20;;;;;;;1.02;0.98;;;10.80;99.90;;;;;;6337980;22;20007;-86
2024/01/02 13:46:48;;;;;;;0.90;0.90;;;11.40;99.90;;;;;;6338320;22;20026;-88
2024/01/02 13:49:47;;;;;;;1.10;1.10;;;11.50;99.90;;;;;;6337612;22;20006;-87
2024/01/02 13:52:29;;;;;;;1.00;0.90;;;11.40;99.90;;;;;;6340465;22;20040;-92
2024/01/02 13:54:56;;;;;;;6.30;4.15;;;12.10;99.90;;;;;;6338109;22;20774;-91
2024/01/02 13:57:51;;;;;;;1.55;1.45;;;11.70;99.90;;;;;;6339496;22;20060;-92
2024/01/02 14:00:19;;;;;;;1.48;1.38;;;11.40;99.90;;;;;;6339679;22;20007;-92
2024/01/02 14:02:54;;;;;;;1.95;1.30;;;11.50;99.90;;;;;;6343254;22;20036;-92
2024/01/02 14:05:26;;;;;;;1.73;1.55;;;12.40;99.90;;;;;;6340771;22;20331;-91